Time;durP1;ratioP1;P1;durP2;ratioP2;P2;SDS_P1;SDS_P2;PMS_P1;PMS_P2;Temp;Humidity;BMP_temperature;BMP_pressure;BME280_temperature;BME280_humidity;BME280_pressure;Samples;Min_cycle;Max_cycle;Signal;HPM_P1;HPM_P2
2024/02/27 00:00:18;;;;;;;22.77;16.88;;;;;;;6.07;100.00;100627.66;5072019;28;20502;-69
2024/02/27 00:02:45;;;;;;;21.02;16.08;;;;;;;6.17;100.00;100601.06;5058773;28;20057;-72
2024/02/27 00:05:13;;;;;;;20.00;14.95;;;;;;;6.23;100.00;100610.84;5048359;28;20584;-70
2024/02/27 00:07:41;;;;;;;21.98;16.17;;;;;;;6.14;100.00;100620.78;5049322;28;20056;-73
2024/02/27 00:10:10;;;;;;;23.20;17.83;;;;;;;6.21;100.00;100615.78;5068206;28;20582;-72
2024/02/27 00:12:37;;;;;;;24.33;17.00;;;;;;;6.26;100.00;100618.47;5071105;28;20400;-73
2024/02/27 00:15:05;;;;;;;22.73;17.05;;;;;;;6.37;100.00;100630.97;5070544;28;20439;-72
2024/02/27 00:17:33;;;;;;;22.80;16.80;;;;;;;6.26;100.00;100628.63;5070634;28;20068;-72
2024/02/27 00:20:01;;;;;;;22.90;17.50;;;;;;;6.31;100.00;100623.91;5066142;28;20045;-69
2024/02/27 00:22:28;;;;;;;23.45;18.15;;;;;;;6.18;100.00;100635.50;5047981;28;20064;-70
2024/02/27 00:24:55;;;;;;;25.35;18.92;;;;;;;6.24;100.00;100631.63;5057955;28;20036;-69
2024/02/27 00:27:22;;;;;;;24.40;17.63;;;;;;;6.37;100.00;100652.84;5067047;28;20056;-71
2024/02/27 00:29:50;;;;;;;22.90;18.13;;;;;;;6.31;100.00;100655.94;5068146;28;20041;-71
2024/02/27 00:32:17;;;;;;;24.50;18.40;;;;;;;6.31;100.00;100662.19;5053254;28;20067;-70
2024/02/27 00:34:45;;;;;;;25.10;19.00;;;;;;;6.32;100.00;100663.84;5072073;28;20055;-70
2024/02/27 00:37:13;;;;;;;24.75;18.90;;;;;;;6.19;100.00;100656.28;5070955;28;20052;-70
2024/02/27 00:39:40;;;;;;;28.02;19.83;;;;;;;6.16;100.00;100665.06;5072213;28;20057;-70
2024/02/27 00:42:07;;;;;;;24.52;18.92;;;;;;;6.24;100.00;100656.22;5071450;28;20075;-70
2024/02/27 00:44:38;;;;;;;27.38;20.30;;;;;;;6.21;100.00;100664.19;5070632;28;20789;-69
2024/02/27 00:47:05;;;;;;;28.00;20.02;;;;;;;6.36;100.00;100675.81;5071068;28;20056;-70
2024/02/27 00:49:33;;;;;;;28.70;20.42;;;;;;;6.31;100.00;100684.06;5071603;28;20421;-71
2024/02/27 00:52:00;;;;;;;29.50;20.58;;;;;;;6.18;100.00;100681.19;5070573;28;20056;-70
2024/02/27 00:54:28;;;;;;;31.13;21.23;;;;;;;6.04;100.00;100683.75;5072009;28;20478;-70
2024/02/27 00:56:55;;;;;;;30.65;21.23;;;;;;;6.10;100.00;100688.06;5070586;28;20717;-70
2024/02/27 00:59:23;;;;;;;28.13;20.83;;;;;;;6.06;100.00;100700.69;5071783;28;20044;-71
2024/02/27 01:01:50;;;;;;;32.78;22.17;;;;;;;6.21;100.00;100695.09;5053963;28;20060;-70
2024/02/27 01:04:17;;;;;;;30.67;22.50;;;;;;;6.23;100.00;100712.03;5050063;28;20484;-71
2024/02/27 01:06:45;;;;;;;31.55;22.58;;;;;;;6.18;100.00;100697.59;5067085;28;20053;-71
2024/02/27 01:09:13;;;;;;;30.48;22.00;;;;;;;6.30;100.00;100711.72;5079619;28;20057;-71
2024/02/27 01:11:43;;;;;;;33.92;22.33;;;;;;;6.13;100.00;100705.84;5071523;28;20075;-70
2024/02/27 01:14:12;;;;;;;33.13;21.45;;;;;;;6.18;100.00;100735.88;5071541;28;20126;-71
2024/02/27 01:16:40;;;;;;;31.17;22.70;;;;;;;6.10;100.00;100720.09;5051369;28;20065;-71
2024/02/27 01:19:08;;;;;;;30.75;22.60;;;;;;;6.28;100.00;100722.13;5068082;28;20080;-69
2024/02/27 01:21:35;;;;;;;32.47;22.63;;;;;;;6.23;100.00;100722.16;5052942;28;20090;-71
2024/02/27 01:24:03;;;;;;;30.95;22.75;;;;;;;6.23;100.00;100725.72;5069313;28;20065;-71
2024/02/27 01:26:31;;;;;;;31.45;22.63;;;;;;;6.40;100.00;100760.88;5068875;28;20071;-70
2024/02/27 01:28:59;;;;;;;33.42;22.98;;;;;;;6.26;100.00;100746.22;5069470;28;20048;-71
2024/02/27 01:31:26;;;;;;;35.25;24.48;;;;;;;6.29;100.00;100734.72;5069116;28;20051;-71
2024/02/27 01:33:53;;;;;;;30.00;23.20;;;;;;;6.30;100.00;100733.59;5070331;28;20057;-71
2024/02/27 01:36:21;;;;;;;36.40;24.92;;;;;;;6.38;100.00;100735.75;5069131;28;20061;-70
2024/02/27 01:38:49;;;;;;;32.78;23.15;;;;;;;6.26;100.00;100738.03;5068521;28;20056;-69
2024/02/27 01:41:17;;;;;;;33.30;23.38;;;;;;;6.21;100.00;100746.25;5048958;28;20053;-70
2024/02/27 01:43:45;;;;;;;39.50;24.17;;;;;;;6.19;100.00;100743.00;5074533;28;20059;-70
2024/02/27 01:46:15;;;;;;;30.90;23.10;;;;;;;6.08;100.00;100742.25;5068483;28;20056;-70
2024/02/27 01:48:44;;;;;;;33.42;23.30;;;;;;;6.08;100.00;100741.41;5061364;28;20056;-72
2024/02/27 01:51:13;;;;;;;31.38;23.05;;;;;;;6.20;100.00;100752.81;5057896;28;20044;-71
2024/02/27 01:53:41;;;;;;;32.90;23.25;;;;;;;6.02;100.00;100751.56;5069331;28;20094;-70
2024/02/27 01:56:11;;;;;;;34.65;23.48;;;;;;;6.07;100.00;100764.38;5067853;28;20056;-71
2024/02/27 01:58:38;;;;;;;33.88;23.08;;;;;;;6.00;100.00;100761.97;5069619;28;20099;-71
2024/02/27 02:01:07;;;;;;;36.92;24.30;;;;;;;6.03;100.00;100771.53;5068417;28;20759;-71
2024/02/27 02:03:37;;;;;;;34.28;21.30;;;;;;;6.04;100.00;100773.16;5051652;28;20590;-70
2024/02/27 02:06:09;;;;;;;36.88;24.90;;;;;;;6.28;100.00;100774.09;5050413;28;20064;-70
2024/02/27 02:08:37;;;;;;;35.60;24.17;;;;;;;6.30;100.00;100778.19;5070983;28;20060;-70
2024/02/27 02:11:10;;;;;;;35.80;23.92;;;;;;;6.20;100.00;100775.53;5068695;28;20063;-71
2024/02/27 02:13:38;;;;;;;34.90;23.45;;;;;;;6.26;100.00;100779.06;5053463;28;20048;-71
2024/02/27 02:16:05;;;;;;;32.85;22.15;;;;;;;6.15;100.00;100775.56;5069410;28;20052;-70
2024/02/27 02:18:35;;;;;;;34.83;23.08;;;;;;;6.08;100.00;100790.63;5068337;28;20067;-71
2024/02/27 02:21:03;;;;;;;31.98;23.05;;;;;;;6.16;100.00;100790.03;5068721;28;20052;-69
2024/02/27 02:23:30;;;;;;;38.05;24.77;;;;;;;6.27;100.00;100795.19;5068539;28;20049;-70
2024/02/27 02:25:59;;;;;;;32.28;23.17;;;;;;;6.00;100.00;100781.09;5070276;28;20071;-71
2024/02/27 02:28:27;;;;;;;35.63;23.07;;;;;;;5.97;100.00;100772.63;5069074;28;20057;-72
2024/02/27 02:30:54;;;;;;;33.25;23.15;;;;;;;6.04;100.00;100797.75;5031473;28;20649;-70
2024/02/27 02:33:22;;;;;;;36.03;24.05;;;;;;;6.07;100.00;100781.59;5051060;28;20792;-71
2024/02/27 02:35:49;;;;;;;31.92;22.42;;;;;;;6.13;100.00;100783.22;5058007;28;20567;-71
2024/02/27 02:38:17;;;;;;;34.40;23.33;;;;;;;6.09;100.00;100787.63;5065044;28;20069;-71
2024/02/27 02:40:44;;;;;;;34.90;23.92;;;;;;;6.09;100.00;100786.78;5060590;28;20052;-70
2024/02/27 02:43:11;;;;;;;39.25;24.38;;;;;;;5.89;100.00;100793.19;5070637;28;20056;-70
2024/02/27 02:45:42;;;;;;;35.63;25.40;;;;;;;5.91;100.00;100788.25;5069012;28;20687;-70
2024/02/27 02:48:09;;;;;;;38.50;25.83;;;;;;;6.00;100.00;100788.50;5070026;28;20056;-70
2024/02/27 02:50:37;;;;;;;34.58;24.27;;;;;;;5.89;100.00;100793.19;5049815;28;20033;-70
2024/02/27 02:53:05;;;;;;;40.70;23.80;;;;;;;5.82;100.00;100797.28;5051040;28;20072;-70
2024/02/27 02:55:32;;;;;;;39.92;23.52;;;;;;;5.87;100.00;100806.31;5084587;28;20052;-71
2024/02/27 02:57:59;;;;;;;38.38;24.45;;;;;;;5.94;100.00;100798.63;5051608;28;20051;-71
2024/02/27 03:00:26;;;;;;;33.65;23.23;;;;;;;5.66;100.00;100802.84;5034979;28;20063;-70
2024/02/27 03:02:54;;;;;;;37.92;24.33;;;;;;;5.89;100.00;100822.44;5070012;28;20053;-70
2024/02/27 03:05:21;;;;;;;35.00;23.17;;;;;;;5.80;100.00;100824.91;5069613;28;20045;-71
2024/02/27 03:07:49;;;;;;;36.75;23.92;;;;;;;5.77;100.00;100839.09;5068388;28;20794;-70
2024/02/27 03:10:16;;;;;;;35.88;23.83;;;;;;;5.81;100.00;100826.53;5050536;28;20063;-71
2024/02/27 03:12:46;;;;;;;35.88;23.65;;;;;;;5.89;100.00;100826.00;5051898;28;20060;-69
2024/02/27 03:15:14;;;;;;;34.17;23.60;;;;;;;5.93;100.00;100835.25;5068159;28;20063;-69
2024/02/27 03:17:41;;;;;;;35.65;22.70;;;;;;;5.90;100.00;100845.94;5068347;28;20048;-71
2024/02/27 03:20:10;;;;;;;33.00;23.65;;;;;;;5.88;100.00;100838.00;5066048;28;20055;-70
2024/02/27 03:22:37;;;;;;;34.97;22.70;;;;;;;5.86;100.00;100851.13;5066242;28;20082;-70
2024/02/27 03:25:05;;;;;;;34.97;23.00;;;;;;;5.95;100.00;100854.94;5065784;28;20551;-73
2024/02/27 03:27:34;;;;;;;36.25;22.33;;;;;;;5.98;100.00;100842.63;5051300;28;20511;-71
2024/02/27 03:30:03;;;;;;;38.20;22.45;;;;;;;5.81;100.00;100848.41;5082706;28;20056;-72
2024/02/27 03:32:31;;;;;;;35.67;23.02;;;;;;;5.73;100.00;100854.44;5064295;28;20056;-69
2024/02/27 03:34:59;;;;;;;35.03;21.35;;;;;;;5.82;100.00;100857.41;5071390;28;20048;-70
2024/02/27 03:37:26;;;;;;;34.85;22.40;;;;;;;5.71;100.00;100848.44;5054387;28;20060;-71
2024/02/27 03:39:53;;;;;;;33.08;22.30;;;;;;;5.74;100.00;100862.38;5051610;28;20045;-71
2024/02/27 03:42:21;;;;;;;37.97;22.67;;;;;;;5.65;100.00;100858.56;5061027;28;20060;-70
2024/02/27 03:44:48;;;;;;;35.90;22.58;;;;;;;5.55;100.00;100853.13;5067778;28;20090;-71
2024/02/27 03:47:19;;;;;;;40.08;22.73;;;;;;;5.65;100.00;100865.94;5070067;28;20778;-73
2024/02/27 03:49:46;;;;;;;41.35;23.67;;;;;;;5.73;100.00;100870.84;5051000;28;20044;-71
2024/02/27 03:52:14;;;;;;;35.78;22.75;;;;;;;5.40;100.00;100887.84;5067339;28;20060;-69
2024/02/27 03:54:41;;;;;;;33.58;21.88;;;;;;;5.50;100.00;100882.38;5067086;28;20135;-71
2024/02/27 03:57:10;;;;;;;33.13;22.45;;;;;;;5.48;100.00;100879.91;5068604;28;20060;-71
2024/02/27 03:59:37;;;;;;;34.30;22.60;;;;;;;5.51;100.00;100897.66;5067161;28;20052;-71
2024/02/27 04:02:06;;;;;;;32.47;21.77;;;;;;;5.58;100.00;100893.56;5066437;28;20611;-71
2024/02/27 04:04:34;;;;;;;30.95;20.85;;;;;;;5.56;100.00;100898.47;5066917;28;20451;-70
2024/02/27 04:07:01;;;;;;;32.20;21.50;;;;;;;5.66;100.00;100898.47;5051682;28;20648;-71
2024/02/27 04:09:29;;;;;;;28.70;20.38;;;;;;;5.64;100.00;100911.59;5062639;28;20507;-71
2024/02/27 04:11:59;;;;;;;34.67;21.70;;;;;;;5.55;100.00;100901.47;5067929;28;20177;-70
2024/02/27 04:14:27;;;;;;;32.90;22.08;;;;;;;5.71;100.00;100909.38;5067994;28;20435;-70
2024/02/27 04:16:54;;;;;;;38.60;22.83;;;;;;;5.67;100.00;100908.28;5045751;28;20056;-70
2024/02/27 04:19:21;;;;;;;32.38;21.90;;;;;;;5.55;100.00;100901.47;5067188;28;20053;-71
2024/02/27 04:21:49;;;;;;;33.28;21.88;;;;;;;5.74;100.00;100905.25;5067948;28;20060;-70
2024/02/27 04:24:17;;;;;;;35.50;21.08;;;;;;;5.70;100.00;100910.47;5049965;28;20049;-71
2024/02/27 04:26:45;;;;;;;39.17;22.38;;;;;;;5.47;100.00;100907.50;5068056;28;20135;-72
2024/02/27 04:29:12;;;;;;;33.45;21.60;;;;;;;5.36;100.00;100923.09;5068617;28;20048;-72
2024/02/27 04:31:43;;;;;;;34.35;22.85;;;;;;;5.46;100.00;100900.38;5065618;28;20054;-70
2024/02/27 04:34:11;;;;;;;36.75;22.70;;;;;;;5.62;100.00;100900.09;5047824;28;20511;-70
2024/02/27 04:36:44;;;;;;;38.58;21.70;;;;;;;5.62;100.00;100899.28;5046279;28;20056;-70
2024/02/27 04:39:12;;;;;;;34.03;22.13;;;;;;;5.65;100.00;100920.59;5063457;28;20051;-70
2024/02/27 04:41:40;;;;;;;33.85;22.70;;;;;;;5.56;100.00;100911.31;5061285;28;20060;-70
2024/02/27 04:44:10;;;;;;;36.58;23.15;;;;;;;5.60;100.00;100909.66;5067010;28;20052;-72
2024/02/27 04:46:37;;;;;;;32.80;22.13;;;;;;;5.69;100.00;100922.50;5067887;28;20052;-70
2024/02/27 04:49:04;;;;;;;33.50;22.85;;;;;;;5.84;100.00;100929.06;5066018;28;20056;-71
2024/02/27 04:51:32;;;;;;;33.33;22.00;;;;;;;5.59;100.00;100927.16;5066260;28;20083;-71
2024/02/27 04:53:59;;;;;;;36.25;22.60;;;;;;;5.67;100.00;100943.81;5066146;28;20048;-71
2024/02/27 04:56:27;;;;;;;33.13;22.20;;;;;;;5.83;100.00;100952.84;5067444;28;20052;-71
2024/02/27 04:58:54;;;;;;;33.88;20.80;;;;;;;5.79;100.00;100953.66;5067338;28;20052;-71
2024/02/27 05:01:22;;;;;;;35.65;23.13;;;;;;;5.72;100.00;100951.19;5066206;28;20064;-70
2024/02/27 05:03:50;;;;;;;33.88;22.85;;;;;;;5.75;100.00;100959.63;5067576;28;20454;-70
2024/02/27 05:06:18;;;;;;;32.60;22.50;;;;;;;5.76;100.00;100957.75;5049552;28;20052;-70
2024/02/27 05:08:47;;;;;;;33.83;23.35;;;;;;;5.65;100.00;100964.31;5048476;28;20053;-70
2024/02/27 05:11:14;;;;;;;32.65;22.40;;;;;;;5.52;100.00;100984.00;5067088;28;20064;-70
2024/02/27 05:13:41;;;;;;;31.73;21.25;;;;;;;5.46;100.00;100968.69;5067633;28;20071;-70
2024/02/27 05:16:09;;;;;;;38.90;22.90;;;;;;;5.61;100.00;100974.16;5064959;28;20057;-71
2024/02/27 05:18:36;;;;;;;37.30;21.85;;;;;;;5.53;100.00;100975.53;5032809;28;20084;-70
2024/02/27 05:21:04;;;;;;;36.65;22.33;;;;;;;5.54;100.00;100984.53;5064975;28;20559;-70
2024/02/27 05:23:33;;;;;;;31.30;21.40;;;;;;;5.38;100.00;100986.47;5069736;28;20048;-71
2024/02/27 05:26:00;;;;;;;33.15;22.27;;;;;;;5.60;100.00;100992.47;5071575;28;20531;-71
2024/02/27 05:28:28;;;;;;;35.17;20.95;;;;;;;5.66;100.00;100991.38;5070753;28;20519;-70
2024/02/27 05:30:56;;;;;;;33.50;22.45;;;;;;;5.53;100.00;100980.97;5070260;28;20075;-71
2024/02/27 05:33:23;;;;;;;34.83;22.15;;;;;;;5.56;100.00;101004.22;5071281;28;20056;-71
2024/02/27 05:35:51;;;;;;;30.35;22.20;;;;;;;5.62;100.00;100997.66;5071353;28;20051;-71
2024/02/27 05:38:18;;;;;;;32.45;22.00;;;;;;;5.66;100.00;100999.56;5069668;28;20075;-72
2024/02/27 05:40:46;;;;;;;35.03;22.77;;;;;;;5.59;100.00;101001.75;5071148;28;20049;-72
2024/02/27 05:43:13;;;;;;;32.30;21.75;;;;;;;5.49;100.00;101007.19;5069037;28;20055;-71
2024/02/27 05:45:41;;;;;;;31.17;22.30;;;;;;;5.51;100.00;101026.06;5069167;28;20063;-71
2024/02/27 05:48:09;;;;;;;34.63;22.45;;;;;;;5.50;100.00;101016.22;5070834;28;20655;-71
2024/02/27 05:50:36;;;;;;;33.35;22.05;;;;;;;5.65;100.00;101002.56;5052268;28;20048;-70
2024/02/27 05:53:04;;;;;;;32.45;21.70;;;;;;;5.67;100.00;101020.31;5070235;28;20052;-71
2024/02/27 05:55:31;;;;;;;31.33;20.40;;;;;;;5.52;100.00;101016.78;5069351;28;20063;-71
2024/02/27 05:58:00;;;;;;;29.98;20.17;;;;;;;5.53;100.00;101032.91;5070543;28;20739;-71
2024/02/27 06:00:27;;;;;;;30.02;21.20;;;;;;;5.48;100.00;101032.06;5070409;28;20052;-71
2024/02/27 06:02:54;;;;;;;31.30;21.17;;;;;;;5.59;100.00;101053.69;5067838;28;20465;-71
2024/02/27 06:05:22;;;;;;;31.67;21.88;;;;;;;5.52;100.00;101055.03;5070183;28;20079;-71
2024/02/27 06:07:51;;;;;;;30.67;21.10;;;;;;;5.54;100.00;101045.44;5070157;28;20063;-71
2024/02/27 06:10:19;;;;;;;33.00;22.60;;;;;;;5.64;100.00;101061.03;5069960;28;20055;-71
2024/02/27 06:12:46;;;;;;;31.90;20.73;;;;;;;5.57;100.00;101080.44;5069650;28;20044;-71
2024/02/27 06:15:14;;;;;;;31.10;21.58;;;;;;;5.48;100.00;101048.47;5052084;28;20082;-70
2024/02/27 06:17:41;;;;;;;34.05;22.25;;;;;;;5.36;100.00;101059.66;5050892;28;20072;-71
2024/02/27 06:22:10;;;;;;;29.10;21.35;;;;;;;5.50;100.00;101066.22;5068121;28;20057;-71
2024/02/27 06:22:56;;;;;;;31.20;21.45;;;;;;;5.19;100.00;101077.38;5069510;28;20066;-72
2024/02/27 06:25:23;;;;;;;33.90;20.67;;;;;;;5.23;100.00;101076.53;5070247;28;20048;-72
2024/02/27 06:27:51;;;;;;;31.90;21.13;;;;;;;5.26;100.00;101083.38;5069230;28;20079;-69
2024/02/27 06:30:18;;;;;;;31.63;21.70;;;;;;;5.32;100.00;101082.28;5068328;28;20060;-68
2024/02/27 06:32:46;;;;;;;32.15;21.15;;;;;;;5.33;100.00;101086.69;5068250;28;20388;-69
2024/02/27 06:35:14;;;;;;;38.60;22.90;;;;;;;5.31;100.00;101086.97;5068384;28;20232;-69
2024/02/27 06:37:41;;;;;;;35.72;22.88;;;;;;;5.34;100.00;101102.78;5069982;28;20055;-68
2024/02/27 06:40:09;;;;;;;36.20;21.55;;;;;;;5.40;100.00;101098.16;5070102;28;20496;-68
2024/02/27 06:42:37;;;;;;;29.92;21.50;;;;;;;5.63;100.00;101114.06;5069995;28;20048;-68
2024/02/27 06:45:04;;;;;;;37.25;23.88;;;;;;;5.60;100.00;101109.13;5068347;28;20044;-68
2024/02/27 06:47:32;;;;;;;33.35;22.88;;;;;;;5.32;100.00;101107.69;5069674;28;20056;-67
2024/02/27 06:49:59;;;;;;;33.47;22.73;;;;;;;5.36;100.00;101105.25;5069173;28;20057;-68
2024/02/27 06:52:27;;;;;;;34.25;22.48;;;;;;;5.34;100.00;101107.44;5051136;28;20056;-68
2024/02/27 06:54:54;;;;;;;36.58;24.70;;;;;;;5.42;100.00;101113.19;5068400;28;20063;-67
2024/02/27 06:57:23;;;;;;;35.80;23.85;;;;;;;5.52;100.00;101118.69;5066735;28;20613;-66
2024/02/27 06:59:50;;;;;;;33.75;23.67;;;;;;;5.46;100.00;101119.75;5068908;28;20048;-68
2024/02/27 07:02:18;;;;;;;37.13;23.58;;;;;;;5.41;100.00;101129.84;5068032;28;20081;-69
2024/02/27 07:04:45;;;;;;;35.85;24.63;;;;;;;5.37;100.00;101137.75;5068855;28;20056;-68
2024/02/27 07:07:13;;;;;;;33.00;24.95;;;;;;;5.33;100.00;101130.38;5051649;28;20060;-67
2024/02/27 07:09:40;;;;;;;38.60;25.17;;;;;;;5.32;100.00;101128.72;5067073;28;20060;-68
2024/02/27 07:12:08;;;;;;;35.97;25.25;;;;;;;5.34;100.00;101132.00;5069054;28;20048;-68
2024/02/27 07:14:41;;;;;;;36.53;25.27;;;;;;;5.22;100.00;101134.16;5069241;28;20129;-67
2024/02/27 07:17:09;;;;;;;40.95;27.08;;;;;;;5.14;100.00;101138.25;5069692;28;20052;-68
2024/02/27 07:19:36;;;;;;;35.28;25.15;;;;;;;5.08;100.00;101138.47;5066433;28;20056;-70
2024/02/27 07:22:05;;;;;;;40.42;26.20;;;;;;;5.18;100.00;101144.78;5060608;28;20083;-68
2024/02/27 07:24:32;;;;;;;38.25;25.17;;;;;;;5.11;100.00;101155.16;5074547;28;20044;-69
2024/02/27 07:26:59;;;;;;;43.67;26.88;;;;;;;5.01;100.00;101146.91;5072037;28;20063;-70
2024/02/27 07:29:27;;;;;;;41.15;26.30;;;;;;;5.24;100.00;101140.19;5060248;28;20048;-69
2024/02/27 07:31:54;;;;;;;39.22;26.52;;;;;;;5.32;100.00;101143.22;5063482;28;20067;-69
2024/02/27 07:34:21;;;;;;;36.88;26.08;;;;;;;5.22;100.00;101150.53;5057338;28;20056;-67
2024/02/27 07:36:49;;;;;;;37.95;25.38;;;;;;;5.77;100.00;101155.34;5064639;28;20056;-69
2024/02/27 07:39:17;;;;;;;38.30;25.67;;;;;;;5.52;100.00;101158.84;5062044;28;20063;-68
2024/02/27 07:41:44;;;;;;;36.40;26.15;;;;;;;5.73;100.00;101144.13;5063363;28;20076;-69
2024/02/27 07:44:11;;;;;;;39.63;28.17;;;;;;;5.23;100.00;101154.94;5049284;28;20081;-67
2024/02/27 07:46:39;;;;;;;39.22;28.40;;;;;;;5.26;100.00;101159.84;5059250;28;20053;-70
2024/02/27 07:49:06;;;;;;;37.78;26.17;;;;;;;5.35;100.00;101166.44;5064321;28;20071;-68
2024/02/27 07:51:34;;;;;;;40.88;27.70;;;;;;;5.38;100.00;101182.28;5060894;28;21959;-71
2024/02/27 07:54:03;;;;;;;39.97;26.85;;;;;;;5.44;100.00;101167.56;5066146;28;20060;-70
2024/02/27 07:56:31;;;;;;;38.42;27.92;;;;;;;5.40;100.00;101186.41;5066703;28;20616;-69
2024/02/27 07:58:59;;;;;;;41.05;27.63;;;;;;;5.43;100.00;101180.41;5052724;28;20063;-70
2024/02/27 08:01:26;;;;;;;40.70;28.65;;;;;;;5.18;100.00;101184.94;5062256;28;20045;-71
2024/02/27 08:03:54;;;;;;;40.05;26.92;;;;;;;5.45;100.00;101175.50;5054537;28;20741;-70
2024/02/27 08:06:22;;;;;;;41.85;28.42;;;;;;;5.15;100.00;101180.84;5056726;28;20768;-71
2024/02/27 08:08:52;;;;;;;42.78;28.30;;;;;;;5.15;100.00;101185.47;5055718;28;20064;-71
2024/02/27 08:11:21;;;;;;;43.45;27.48;;;;;;;5.27;100.00;101188.78;5059665;28;20048;-70
2024/02/27 08:13:49;;;;;;;39.25;26.70;;;;;;;5.52;100.00;101175.25;5065589;28;20123;-72
2024/02/27 08:16:16;;;;;;;44.42;28.08;;;;;;;5.43;100.00;101182.31;5058696;28;20052;-72
2024/02/27 08:18:44;;;;;;;41.65;27.95;;;;;;;5.43;100.00;101196.78;5047310;28;20048;-73
2024/02/27 08:21:11;;;;;;;35.70;25.60;;;;;;;5.49;100.00;101200.38;5054255;28;20056;-73
2024/02/27 08:23:38;;;;;;;40.70;27.02;;;;;;;5.55;100.00;101197.38;5059847;28;20048;-72
2024/02/27 08:26:06;;;;;;;40.13;26.33;;;;;;;5.29;100.00;101201.09;5064769;28;20040;-69
2024/02/27 08:28:33;;;;;;;39.25;26.67;;;;;;;5.28;100.00;101199.44;5061584;28;20155;-70
2024/02/27 08:31:03;;;;;;;38.92;26.35;;;;;;;5.24;100.00;101192.06;5056920;28;20064;-71
2024/02/27 08:33:31;;;;;;;37.90;26.45;;;;;;;5.35;100.00;101202.75;5064011;28;20417;-75
2024/02/27 08:35:58;;;;;;;39.63;25.70;;;;;;;5.45;100.00;101201.97;5065094;28;20071;-73
2024/02/27 08:38:26;;;;;;;39.63;26.30;;;;;;;5.45;100.00;101204.72;5050620;28;20053;-72
2024/02/27 08:40:53;;;;;;;41.85;25.08;;;;;;;5.14;100.00;101206.50;5062531;28;20691;-72
2024/02/27 08:43:21;;;;;;;41.35;25.52;;;;;;;5.40;100.00;101211.00;5056006;28;20048;-71
2024/02/27 08:45:48;;;;;;;40.00;24.95;;;;;;;5.31;100.00;101226.25;5037543;28;20053;-71
2024/02/27 08:48:15;;;;;;;36.40;22.90;;;;;;;5.12;100.00;101230.53;5047649;28;20049;-72
2024/02/27 08:50:45;;;;;;;38.88;25.00;;;;;;;5.24;100.00;101238.50;5067100;28;20053;-72
2024/02/27 08:53:13;;;;;;;39.28;25.27;;;;;;;5.32;100.00;101236.06;5048856;28;20049;-72
2024/02/27 08:55:41;;;;;;;36.15;24.27;;;;;;;5.22;100.00;101237.94;5055907;28;20068;-72
2024/02/27 08:58:08;;;;;;;36.75;24.42;;;;;;;5.24;100.00;101227.56;5061470;28;20057;-71
2024/02/27 09:00:39;;;;;;;42.88;26.05;;;;;;;5.17;100.00;101235.19;5065877;28;20060;-73
2024/02/27 09:03:07;;;;;;;39.63;24.35;;;;;;;5.31;100.00;101248.09;5067522;28;20055;-71
2024/02/27 09:05:35;;;;;;;37.15;23.98;;;;;;;5.19;100.00;101243.94;5059070;28;20084;-72
2024/02/27 09:08:02;;;;;;;38.45;25.90;;;;;;;5.41;100.00;101234.47;5079761;28;20048;-72
2024/02/27 09:10:29;;;;;;;41.35;25.95;;;;;;;5.56;100.00;101240.00;5070789;28;20053;-71
2024/02/27 09:12:57;;;;;;;39.95;24.33;;;;;;;5.48;100.00;101242.41;5055898;28;20054;-72
2024/02/27 09:15:25;;;;;;;36.97;24.50;;;;;;;5.58;100.00;101232.34;5076728;28;20055;-71
2024/02/27 09:17:52;;;;;;;38.38;24.38;;;;;;;5.51;99.14;101233.69;5069907;28;20049;-71
2024/02/27 09:20:20;;;;;;;38.80;25.45;;;;;;;5.50;100.00;101229.31;5057188;28;20053;-72
2024/02/27 09:22:48;;;;;;;38.38;25.17;;;;;;;5.62;99.98;101238.09;5060059;28;20044;-70
2024/02/27 09:25:15;;;;;;;36.13;24.77;;;;;;;5.49;100.00;101238.63;5057001;28;20049;-72
2024/02/27 09:27:44;;;;;;;42.10;26.30;;;;;;;5.64;99.47;101235.94;5070978;28;20044;-68
2024/02/27 09:30:12;;;;;;;39.42;24.08;;;;;;;5.69;98.29;101255.06;5067428;28;20162;-75
2024/02/27 09:32:39;;;;;;;36.97;23.85;;;;;;;5.80;99.53;101250.47;5070156;28;20064;-72
2024/02/27 09:35:07;;;;;;;36.78;24.73;;;;;;;5.56;98.40;101241.94;5068723;28;20063;-73
2024/02/27 09:37:36;;;;;;;37.33;24.42;;;;;;;5.61;99.73;101242.75;5070815;28;20062;-73
2024/02/27 09:40:05;;;;;;;46.42;24.80;;;;;;;5.65;98.69;101238.41;5047316;28;20056;-70
2024/02/27 09:42:33;;;;;;;33.20;22.65;;;;;;;5.67;98.18;101251.78;5071271;28;20052;-71
2024/02/27 09:45:07;;;;;;;35.20;23.15;;;;;;;5.64;98.67;101235.94;5070179;28;20052;-70
2024/02/27 09:47:38;;;;;;;31.92;22.95;;;;;;;5.72;98.47;101247.16;5071564;28;20059;-70
2024/02/27 09:50:07;;;;;;;36.63;22.55;;;;;;;5.84;97.71;101244.22;5070515;28;20506;-73
2024/02/27 09:52:36;;;;;;;36.08;24.17;;;;;;;5.77;97.93;101245.53;5047030;28;20072;-71
2024/02/27 09:55:05;;;;;;;35.90;24.30;;;;;;;5.84;97.89;101230.53;5063824;28;20060;-74
2024/02/27 09:57:33;;;;;;;33.70;23.80;;;;;;;5.97;97.09;101232.78;5062301;28;20404;-73
2024/02/27 10:00:00;;;;;;;35.83;22.08;;;;;;;5.85;96.77;101234.09;5068629;28;20553;-72
2024/02/27 10:02:38;;;;;;;40.17;22.80;;;;;;;5.96;97.34;101235.78;5066877;28;20114;-71
2024/02/27 10:05:07;;;;;;;37.15;22.30;;;;;;;5.91;96.71;101243.97;5075078;28;20056;-73
2024/02/27 10:07:36;;;;;;;34.40;21.55;;;;;;;6.01;96.43;101265.88;5076212;28;20048;-71
2024/02/27 10:10:04;;;;;;;38.03;22.00;;;;;;;6.30;95.64;101247.84;5073856;28;20052;-70
2024/02/27 10:12:32;;;;;;;32.83;21.50;;;;;;;6.22;95.00;101249.25;5054004;28;20291;-68
2024/02/27 10:14:59;;;;;;;32.80;22.00;;;;;;;6.31;94.40;101249.50;5071392;28;20059;-75
2024/02/27 10:17:27;;;;;;;31.45;21.73;;;;;;;6.41;93.57;101252.25;5048468;28;20061;-73
2024/02/27 10:19:55;;;;;;;35.65;21.50;;;;;;;6.54;93.72;101243.47;5053543;28;20060;-71
2024/02/27 10:22:23;;;;;;;28.73;20.38;;;;;;;6.63;92.84;101244.59;5063061;28;20060;-72
2024/02/27 10:25:14;;;;;;;30.65;20.83;;;;;;;6.58;92.61;101237.22;5072517;28;20059;-73
2024/02/27 10:27:42;;;;;;;29.90;19.90;;;;;;;6.74;91.18;101236.09;5060030;28;20425;-73
2024/02/27 10:30:11;;;;;;;29.23;19.20;;;;;;;6.55;92.00;101242.41;5062667;28;20059;-74
2024/02/27 10:32:42;;;;;;;27.48;18.35;;;;;;;6.53;92.37;101248.16;5081259;28;20056;-72
2024/02/27 10:35:13;;;;;;;25.63;17.83;;;;;;;6.70;92.16;101245.13;5059722;28;20052;-74
2024/02/27 10:37:41;;;;;;;27.77;19.15;;;;;;;6.51;92.10;101244.03;5076481;28;20048;-73
2024/02/27 10:40:10;;;;;;;27.90;18.95;;;;;;;6.53;92.86;101253.63;5042566;28;20057;-75
2024/02/27 10:42:40;;;;;;;27.20;18.00;;;;;;;6.68;91.90;101259.09;5076264;28;20055;-72
2024/02/27 10:45:09;;;;;;;26.73;17.73;;;;;;;6.81;90.12;101254.97;5075836;28;20051;-74
2024/02/27 10:47:37;;;;;;;26.77;16.95;;;;;;;7.11;89.09;101259.59;5075759;28;20048;-73
2024/02/27 10:50:06;;;;;;;26.90;17.70;;;;;;;6.88;89.82;101249.22;5070028;28;20060;-74
2024/02/27 10:52:35;;;;;;;29.25;18.10;;;;;;;7.06;88.67;101251.38;5074796;28;20538;-72
2024/02/27 10:55:03;;;;;;;25.60;16.58;;;;;;;6.99;88.60;101248.13;5071823;28;20087;-67
2024/02/27 10:57:35;;;;;;;24.73;17.23;;;;;;;6.73;89.80;101241.81;5062094;28;20056;-68
2024/02/27 11:00:04;;;;;;;30.05;18.70;;;;;;;6.83;90.34;101247.31;5074085;28;20079;-68
2024/02/27 11:02:49;;;;;;;27.08;18.25;;;;;;;7.01;88.89;101248.66;5069420;28;20403;-70
2024/02/27 11:05:18;;;;;;;26.25;16.85;;;;;;;7.17;88.41;101245.59;5071309;28;20044;-73
2024/02/27 11:07:46;;;;;;;23.67;15.55;;;;;;;7.20;87.29;101245.03;5065199;28;20052;-71
2024/02/27 11:10:23;;;;;;;23.85;15.43;;;;;;;7.15;87.93;101247.00;5058948;28;20428;-70
2024/02/27 11:12:52;;;;;;;25.48;15.18;;;;;;;7.32;86.79;101245.53;5070046;28;20056;-70